Bright Hope — HPTM — position and weather

sailwx.info

Track history (hours):
 
Tides and Currents Weather Stations Pressure Air Temp Water Temp Dewpoint Dewpoint Depression Visibility Wind Speed Wind Dir Waves Ship Positions

Bright Hope

Last reported at 2017-Apr-27 02:01 UTC. Time now 2017-May-25 01:10 UTC.
Position N 01°16' E 104°03'.
Warning: this ship's position is 27 days out of date.

Length 170 m; draft 10 m.

Type: Cargo ship. MMSI: 371117000.

Date/timePositionNaut miles runAvg speedWind from/ knotsBaromVisibWave heightAir tempDewpointWater temp
2017-Apr-27 02:01N 01°16' E 104°03'0 8.2
2017-Apr-27 01:59N 01°16' E 104°03'3 6.7
2017-Apr-27 01:30N 01°16' E 103°60'2 4.9
2017-Apr-27 01:00N 01°17' E 103°58'0 0.4
2017-Apr-27 00:25N 01°17' E 103°58'0 0.0
2017-Apr-26 23:58N 01°17' E 103°58'0 0.0
2017-Apr-26 23:28N 01°17' E 103°58'0 0.0
2017-Apr-26 22:25N 01°17' E 103°58'0 0.0
2017-Apr-26 21:55N 01°17' E 103°58'0 0.0
2017-Apr-26 21:28N 01°17' E 103°58'0 0.0
2017-Apr-26 20:58N 01°17' E 103°58'0 0.1
2017-Apr-26 20:28N 01°17' E 103°58'0 0.0
2017-Apr-26 19:55N 01°17' E 103°58'0 0.0
2017-Apr-26 19:28N 01°17' E 103°58'0 0.0
2017-Apr-26 18:58N 01°17' E 103°58'0 0.0
2017-Apr-26 18:25N 01°17' E 103°58'0 0.1
2017-Apr-26 17:52N 01°17' E 103°58'0 0.0
2017-Apr-26 17:19N 01°17' E 103°58'0 0.0
2017-Apr-26 16:58N 01°17' E 103°58'0 0.0
2017-Apr-26 16:22N 01°17' E 103°58'0 0.1
2017-Apr-26 15:55N 01°17' E 103°58'0 0.3
2017-Apr-26 15:28N 01°17' E 103°58'0 0.1
2017-Apr-26 14:43N 01°17' E 103°58'0 0.0
2017-Apr-26 14:10N 01°17' E 103°58'0 0.0
2017-Apr-26 13:25N 01°17' E 103°58'0 0.0
2017-Apr-26 12:58N 01°17' E 103°58'0 0.0
2017-Apr-26 12:28N 01°17' E 103°58'0 0.0
2017-Apr-26 11:58N 01°17' E 103°58'0 0.2
2017-Apr-26 11:25N 01°17' E 103°58'0 0.2
2017-Apr-26 10:58N 01°17' E 103°58'0 0.1
2017-Apr-26 10:28N 01°17' E 103°58'0 0.0
2017-Apr-26 09:55N 01°17' E 103°58'0 0.0
2017-Apr-26 09:28N 01°17' E 103°58'0 0.0
2017-Apr-26 08:52N 01°17' E 103°58'0 0.0
2017-Apr-26 08:28N 01°17' E 103°58'0 0.1
2017-Apr-26 08:01N 01°17' E 103°58'1 2.7
2017-Apr-26 07:30N 01°16' E 103°59'2 3.4
2017-Apr-26 07:00N 01°15' E 103°58'4 7.5
2017-Apr-26 06:31N 01°13' E 103°55'510.0
2017-Apr-26 06:00N 01°11' E 103°50'5 9.6
2017-Apr-26 05:31N 01°08' E 103°46'510.3
2017-Apr-26 05:00N 01°05' E 103°42'5 9.7
2017-Apr-26 04:30N 01°03' E 103°38'611.8
2017-Apr-26 04:00N 01°06' E 103°33'611.9
2017-Apr-26 03:29N 01°09' E 103°27'6312.8
2017-Apr-25 22:31N 01°44' E 102°35'412.3
2017-Apr-25 22:12N 01°46' E 102°31'211.8
2017-Apr-25 21:59N 01°47' E 102°29'611.8
2017-Apr-25 21:31N 01°50' E 102°24'  
Track history (hours):
 
Tides and Currents Weather Stations Pressure Air Temp Water Temp Dewpoint Dewpoint Depression Visibility Wind Speed Wind Dir Waves Ship Positions

Bright Hope

Last reported at 2017-Apr-27 02:01 UTC. Time now 2017-May-25 01:10 UTC.
Position N 01°16' E 104°03'.
Warning: this ship's position is 27 days out of date.

Length 170 m; draft 10 m.

Type: Cargo ship. MMSI: 371117000.

Date/timePositionNaut miles runAvg speedWind from/ knotsBaromVisibWave heightAir tempDewpointWater temp
2017-Apr-27 02:01N 01°16' E 104°03'0 8.2
2017-Apr-27 01:59N 01°16' E 104°03'3 6.7
2017-Apr-27 01:30N 01°16' E 103°60'2 4.9
2017-Apr-27 01:00N 01°17' E 103°58'0 0.4
2017-Apr-27 00:25N 01°17' E 103°58'0 0.0
2017-Apr-26 23:58N 01°17' E 103°58'0 0.0
2017-Apr-26 23:28N 01°17' E 103°58'0 0.0
2017-Apr-26 22:25N 01°17' E 103°58'0 0.0
2017-Apr-26 21:55N 01°17' E 103°58'0 0.0
2017-Apr-26 21:28N 01°17' E 103°58'0 0.0
2017-Apr-26 20:58N 01°17' E 103°58'0 0.1
2017-Apr-26 20:28N 01°17' E 103°58'0 0.0
2017-Apr-26 19:55N 01°17' E 103°58'0 0.0
2017-Apr-26 19:28N 01°17' E 103°58'0 0.0
2017-Apr-26 18:58N 01°17' E 103°58'0 0.0
2017-Apr-26 18:25N 01°17' E 103°58'0 0.1
2017-Apr-26 17:52N 01°17' E 103°58'0 0.0
2017-Apr-26 17:19N 01°17' E 103°58'0 0.0
2017-Apr-26 16:58N 01°17' E 103°58'0 0.0
2017-Apr-26 16:22N 01°17' E 103°58'0 0.1
2017-Apr-26 15:55N 01°17' E 103°58'0 0.3
2017-Apr-26 15:28N 01°17' E 103°58'0 0.1
2017-Apr-26 14:43N 01°17' E 103°58'0 0.0
2017-Apr-26 14:10N 01°17' E 103°58'0 0.0
2017-Apr-26 13:25N 01°17' E 103°58'0 0.0
2017-Apr-26 12:58N 01°17' E 103°58'0 0.0
2017-Apr-26 12:28N 01°17' E 103°58'0 0.0
2017-Apr-26 11:58N 01°17' E 103°58'0 0.2
2017-Apr-26 11:25N 01°17' E 103°58'0 0.2
2017-Apr-26 10:58N 01°17' E 103°58'0 0.1
2017-Apr-26 10:28N 01°17' E 103°58'0 0.0
2017-Apr-26 09:55N 01°17' E 103°58'0 0.0
2017-Apr-26 09:28N 01°17' E 103°58'0 0.0
2017-Apr-26 08:52N 01°17' E 103°58'0 0.0
2017-Apr-26 08:28N 01°17' E 103°58'0 0.1
2017-Apr-26 08:01N 01°17' E 103°58'1 2.7
2017-Apr-26 07:30N 01°16' E 103°59'2 3.4
2017-Apr-26 07:00N 01°15' E 103°58'4 7.5
2017-Apr-26 06:31N 01°13' E 103°55'510.0
2017-Apr-26 06:00N 01°11' E 103°50'5 9.6
2017-Apr-26 05:31N 01°08' E 103°46'510.3
2017-Apr-26 05:00N 01°05' E 103°42'5 9.7
2017-Apr-26 04:30N 01°03' E 103°38'611.8
2017-Apr-26 04:00N 01°06' E 103°33'611.9
2017-Apr-26 03:29N 01°09' E 103°27'6312.8
2017-Apr-25 22:31N 01°44' E 102°35'412.3
2017-Apr-25 22:12N 01°46' E 102°31'211.8
2017-Apr-25 21:59N 01°47' E 102°29'611.8
2017-Apr-25 21:31N 01°50' E 102°24'  

Dump ship's entire track history